Rushford Village, Minnesota
Current Conditions -  °F | °C
As of 4:15 AM on Saturday 20 Dec 2014 (Local Time) from KFKA Reporting Station
Light Snow Light Snow  
Wind Chill: 19°   Ceiling: 700
Heat Index: 26°   Visibility: 3mi
Dew Point: 25°   Wind: 7mph
Humidity: 93%   Direction: 170°S
Pressure: 30.18"   Gusts: NA
Location:  43.7298°N, 91.8267°W
Report Text: KFKA 201015Z AUTO 17006KT 3SM -SN OVC007 M03/M04 A3018 RMK AO2 T10311041
Loading
Personal Weather Stations






























Interactive Weather Map New forecast layout! Learn more

10-Day Weather Forecast

Advertisements
Track Severe Weather on mobile